<?xml version="1.0" encoding="UTF-8" standalone="no" ?>
<gpx xmlns="http://www.topografix.com/GPX/1/1" xmlns:xsi="http://www.w3.org/2001/XMLSchema-instance" xsi:schemaLocation="http://www.topografix.com/GPX/1/1 http://www.topografix.com/GPX/1/1/gpx.xsd" version="1.1" creator="VisuGPX - https://www.visugpx.com">
  <metadata>
    <name>Etape3-1_Col du Tourmalet</name>
  </metadata>
  <trk>
    <name><![CDATA[Etape 3_Argelès Gazost_Bagnères de Luchon_114 kms_3519 D+]]></name>
    <extensions>
      <line xmlns="http://www.topografix.com/GPX/gpx_style/0/2">
        <color>0000FF</color>
        <width>4</width>
      </line>
    </extensions>
    <trkseg>
      <trkpt lat="42.89953" lon="-0.02891">
        <ele>632</ele>
        <time>2021-08-20T16:46:03Z</time>
      </trkpt>
      <trkpt lat="42.89892" lon="-0.02839">
        <ele>626</ele>
        <time>2021-08-20T16:46:16Z</time>
      </trkpt>
      <trkpt lat="42.89855" lon="-0.02816">
        <ele>625</ele>
        <time>2021-08-20T16:46:23Z</time>
      </trkpt>
      <trkpt lat="42.89798" lon="-0.02785">
        <ele>627</ele>
        <time>2021-08-20T16:46:34Z</time>
      </trkpt>
      <trkpt lat="42.89772" lon="-0.02771">
        <ele>628</ele>
        <time>2021-08-20T16:46:39Z</time>
      </trkpt>
      <trkpt lat="42.8977" lon="-0.02769">
        <ele>628</ele>
        <time>2021-08-20T16:46:39Z</time>
      </trkpt>
      <trkpt lat="42.89651" lon="-0.02696">
        <ele>628</ele>
        <time>2021-08-20T16:47:03Z</time>
      </trkpt>
      <trkpt lat="42.89543" lon="-0.02629">
        <ele>630</ele>
        <time>2021-08-20T16:47:24Z</time>
      </trkpt>
      <trkpt lat="42.89479" lon="-0.02589">
        <ele>634</ele>
        <time>2021-08-20T16:47:36Z</time>
      </trkpt>
      <trkpt lat="42.89213" lon="-0.02422">
        <ele>638</ele>
        <time>2021-08-20T16:48:28Z</time>
      </trkpt>
      <trkpt lat="42.89209" lon="-0.0242">
        <ele>638</ele>
        <time>2021-08-20T16:48:29Z</time>
      </trkpt>
      <trkpt lat="42.89146" lon="-0.02382">
        <ele>645</ele>
        <time>2021-08-20T16:48:41Z</time>
      </trkpt>
      <trkpt lat="42.8914" lon="-0.02379">
        <ele>647</ele>
        <time>2021-08-20T16:48:42Z</time>
      </trkpt>
      <trkpt lat="42.89124" lon="-0.02365">
        <ele>650</ele>
        <time>2021-08-20T16:48:46Z</time>
      </trkpt>
      <trkpt lat="42.8911" lon="-0.0235">
        <ele>652</ele>
        <time>2021-08-20T16:48:49Z</time>
      </trkpt>
      <trkpt lat="42.89106" lon="-0.02344">
        <ele>652</ele>
        <time>2021-08-20T16:48:50Z</time>
      </trkpt>
      <trkpt lat="42.89086" lon="-0.02315">
        <ele>652</ele>
        <time>2021-08-20T16:48:55Z</time>
      </trkpt>
      <trkpt lat="42.8904" lon="-0.02223">
        <ele>655</ele>
        <time>2021-08-20T16:49:10Z</time>
      </trkpt>
      <trkpt lat="42.89017" lon="-0.02178">
        <ele>657</ele>
        <time>2021-08-20T16:49:17Z</time>
      </trkpt>
      <trkpt lat="42.89014" lon="-0.02172">
        <ele>657</ele>
        <time>2021-08-20T16:49:18Z</time>
      </trkpt>
      <trkpt lat="42.89" lon="-0.02146">
        <ele>658</ele>
        <time>2021-08-20T16:49:22Z</time>
      </trkpt>
      <trkpt lat="42.88976" lon="-0.02114">
        <ele>662</ele>
        <time>2021-08-20T16:49:28Z</time>
      </trkpt>
      <trkpt lat="42.88918" lon="-0.02056">
        <ele>666</ele>
        <time>2021-08-20T16:49:41Z</time>
      </trkpt>
      <trkpt lat="42.88892" lon="-0.02019">
        <ele>668</ele>
        <time>2021-08-20T16:49:48Z</time>
      </trkpt>
      <trkpt lat="42.88865" lon="-0.01969">
        <ele>670</ele>
        <time>2021-08-20T16:49:56Z</time>
      </trkpt>
      <trkpt lat="42.88839" lon="-0.01917">
        <ele>665</ele>
        <time>2021-08-20T16:50:04Z</time>
      </trkpt>
      <trkpt lat="42.88827" lon="-0.019">
        <ele>665</ele>
        <time>2021-08-20T16:50:07Z</time>
      </trkpt>
      <trkpt lat="42.88791" lon="-0.01864">
        <ele>667</ele>
        <time>2021-08-20T16:50:15Z</time>
      </trkpt>
      <trkpt lat="42.88741" lon="-0.01822">
        <ele>666</ele>
        <time>2021-08-20T16:50:25Z</time>
      </trkpt>
      <trkpt lat="42.88686" lon="-0.01773">
        <ele>667</ele>
        <time>2021-08-20T16:50:37Z</time>
      </trkpt>
      <trkpt lat="42.88673" lon="-0.01762">
        <ele>665</ele>
        <time>2021-08-20T16:50:40Z</time>
      </trkpt>
      <trkpt lat="42.88563" lon="-0.01664">
        <ele>655</ele>
        <time>2021-08-20T16:51:03Z</time>
      </trkpt>
      <trkpt lat="42.88548" lon="-0.01646">
        <ele>655</ele>
        <time>2021-08-20T16:51:07Z</time>
      </trkpt>
      <trkpt lat="42.88543" lon="-0.01638">
        <ele>655</ele>
        <time>2021-08-20T16:51:08Z</time>
      </trkpt>
      <trkpt lat="42.88539" lon="-0.01628">
        <ele>655</ele>
        <time>2021-08-20T16:51:10Z</time>
      </trkpt>
      <trkpt lat="42.88538" lon="-0.01619">
        <ele>654</ele>
        <time>2021-08-20T16:51:11Z</time>
      </trkpt>
      <trkpt lat="42.88534" lon="-0.01579">
        <ele>652</ele>
        <time>2021-08-20T16:51:16Z</time>
      </trkpt>
      <trkpt lat="42.88533" lon="-0.01572">
        <ele>653</ele>
        <time>2021-08-20T16:51:17Z</time>
      </trkpt>
      <trkpt lat="42.8853" lon="-0.01562">
        <ele>654</ele>
        <time>2021-08-20T16:51:18Z</time>
      </trkpt>
      <trkpt lat="42.88522" lon="-0.01547">
        <ele>655</ele>
        <time>2021-08-20T16:51:21Z</time>
      </trkpt>
      <trkpt lat="42.88514" lon="-0.01538">
        <ele>655</ele>
        <time>2021-08-20T16:51:23Z</time>
      </trkpt>
      <trkpt lat="42.88481" lon="-0.01513">
        <ele>655</ele>
        <time>2021-08-20T16:51:29Z</time>
      </trkpt>
      <trkpt lat="42.88428" lon="-0.01474">
        <ele>657</ele>
        <time>2021-08-20T16:51:40Z</time>
      </trkpt>
      <trkpt lat="42.88177" lon="-0.01285">
        <ele>667</ele>
        <time>2021-08-20T16:52:31Z</time>
      </trkpt>
      <trkpt lat="42.88019" lon="-0.01162">
        <ele>678</ele>
        <time>2021-08-20T16:53:03Z</time>
      </trkpt>
      <trkpt lat="42.88006" lon="-0.01146">
        <ele>679</ele>
        <time>2021-08-20T16:53:06Z</time>
      </trkpt>
      <trkpt lat="42.87876" lon="-0.00958">
        <ele>685</ele>
        <time>2021-08-20T16:53:40Z</time>
      </trkpt>
      <trkpt lat="42.87443" lon="-0.00325">
        <ele>713</ele>
        <time>2021-08-20T16:55:33Z</time>
      </trkpt>
      <trkpt lat="42.87436" lon="-0.00318">
        <ele>714</ele>
        <time>2021-08-20T16:55:35Z</time>
      </trkpt>
      <trkpt lat="42.87429" lon="-0.00316">
        <ele>714</ele>
        <time>2021-08-20T16:55:36Z</time>
      </trkpt>
      <trkpt lat="42.87425" lon="-0.00316">
        <ele>714</ele>
        <time>2021-08-20T16:55:37Z</time>
      </trkpt>
      <trkpt lat="42.87384" lon="-0.00321">
        <ele>715</ele>
        <time>2021-08-20T16:55:44Z</time>
      </trkpt>
      <trkpt lat="42.8737" lon="-0.00323">
        <ele>715</ele>
        <time>2021-08-20T16:55:46Z</time>
      </trkpt>
      <trkpt lat="42.87369" lon="-0.00323">
        <ele>715</ele>
        <time>2021-08-20T16:55:47Z</time>
      </trkpt>
      <trkpt lat="42.87364" lon="-0.00324">
        <ele>715</ele>
        <time>2021-08-20T16:55:48Z</time>
      </trkpt>
      <trkpt lat="42.87337" lon="-0.00327">
        <ele>715</ele>
        <time>2021-08-20T16:55:52Z</time>
      </trkpt>
      <trkpt lat="42.87329" lon="-0.00328">
        <ele>715</ele>
        <time>2021-08-20T16:55:54Z</time>
      </trkpt>
      <trkpt lat="42.87322" lon="-0.00327">
        <ele>716</ele>
        <time>2021-08-20T16:55:55Z</time>
      </trkpt>
      <trkpt lat="42.87319" lon="-0.00326">
        <ele>716</ele>
        <time>2021-08-20T16:55:56Z</time>
      </trkpt>
      <trkpt lat="42.87309" lon="-0.00315">
        <ele>717</ele>
        <time>2021-08-20T16:55:58Z</time>
      </trkpt>
      <trkpt lat="42.87297" lon="-0.00297">
        <ele>718</ele>
        <time>2021-08-20T16:56:01Z</time>
      </trkpt>
      <trkpt lat="42.87289" lon="-0.00281">
        <ele>719</ele>
        <time>2021-08-20T16:56:04Z</time>
      </trkpt>
      <trkpt lat="42.87262" lon="-0.00235">
        <ele>723</ele>
        <time>2021-08-20T16:56:11Z</time>
      </trkpt>
      <trkpt lat="42.87231" lon="-0.00182">
        <ele>727</ele>
        <time>2021-08-20T16:56:20Z</time>
      </trkpt>
      <trkpt lat="42.87229" lon="-0.00176">
        <ele>728</ele>
        <time>2021-08-20T16:56:21Z</time>
      </trkpt>
      <trkpt lat="42.87229" lon="-0.00171">
        <ele>728</ele>
        <time>2021-08-20T16:56:22Z</time>
      </trkpt>
      <trkpt lat="42.87238" lon="-0.00139">
        <ele>728</ele>
        <time>2021-08-20T16:56:26Z</time>
      </trkpt>
      <trkpt lat="42.87259" lon="-0.00063">
        <ele>729</ele>
        <time>2021-08-20T16:56:37Z</time>
      </trkpt>
      <trkpt lat="42.87262" lon="-0.00053">
        <ele>730</ele>
        <time>2021-08-20T16:56:38Z</time>
      </trkpt>
      <trkpt lat="42.87279" lon="7.0E-5">
        <ele>732</ele>
        <time>2021-08-20T16:56:46Z</time>
      </trkpt>
      <trkpt lat="42.87294" lon="0.00061">
        <ele>734</ele>
        <time>2021-08-20T16:56:54Z</time>
      </trkpt>
      <trkpt lat="42.87299" lon="0.00081">
        <ele>735</ele>
        <time>2021-08-20T16:56:57Z</time>
      </trkpt>
      <trkpt lat="42.87325" lon="0.00178">
        <ele>737</ele>
        <time>2021-08-20T16:57:10Z</time>
      </trkpt>
      <trkpt lat="42.87359" lon="0.00301">
        <ele>738</ele>
        <time>2021-08-20T16:57:27Z</time>
      </trkpt>
      <trkpt lat="42.8736" lon="0.00306">
        <ele>738</ele>
        <time>2021-08-20T16:57:28Z</time>
      </trkpt>
      <trkpt lat="42.87379" lon="0.00376">
        <ele>740</ele>
        <time>2021-08-20T16:57:38Z</time>
      </trkpt>
      <trkpt lat="42.87384" lon="0.00394">
        <ele>741</ele>
        <time>2021-08-20T16:57:40Z</time>
      </trkpt>
      <trkpt lat="42.87397" lon="0.00443">
        <ele>743</ele>
        <time>2021-08-20T16:57:47Z</time>
      </trkpt>
      <trkpt lat="42.87408" lon="0.00481">
        <ele>745</ele>
        <time>2021-08-20T16:57:52Z</time>
      </trkpt>
      <trkpt lat="42.87412" lon="0.00496">
        <ele>746</ele>
        <time>2021-08-20T16:57:54Z</time>
      </trkpt>
      <trkpt lat="42.87425" lon="0.00526">
        <ele>748</ele>
        <time>2021-08-20T16:57:59Z</time>
      </trkpt>
      <trkpt lat="42.87439" lon="0.00547">
        <ele>750</ele>
        <time>2021-08-20T16:58:03Z</time>
      </trkpt>
      <trkpt lat="42.87451" lon="0.00565">
        <ele>751</ele>
        <time>2021-08-20T16:58:06Z</time>
      </trkpt>
      <trkpt lat="42.87454" lon="0.00569">
        <ele>752</ele>
        <time>2021-08-20T16:58:07Z</time>
      </trkpt>
      <trkpt lat="42.8747" lon="0.00594">
        <ele>754</ele>
        <time>2021-08-20T16:58:11Z</time>
      </trkpt>
      <trkpt lat="42.8749" lon="0.00626">
        <ele>756</ele>
        <time>2021-08-20T16:58:16Z</time>
      </trkpt>
      <trkpt lat="42.87496" lon="0.00634">
        <ele>757</ele>
        <time>2021-08-20T16:58:18Z</time>
      </trkpt>
      <trkpt lat="42.87501" lon="0.0064">
        <ele>757</ele>
        <time>2021-08-20T16:58:19Z</time>
      </trkpt>
      <trkpt lat="42.87518" lon="0.00666">
        <ele>760</ele>
        <time>2021-08-20T16:58:24Z</time>
      </trkpt>
      <trkpt lat="42.87559" lon="0.00726">
        <ele>763</ele>
        <time>2021-08-20T16:58:34Z</time>
      </trkpt>
      <trkpt lat="42.87605" lon="0.00793">
        <ele>773</ele>
        <time>2021-08-20T16:58:46Z</time>
      </trkpt>
      <trkpt lat="42.87663" lon="0.00878">
        <ele>779</ele>
        <time>2021-08-20T16:59:01Z</time>
      </trkpt>
      <trkpt lat="42.87684" lon="0.00926">
        <ele>785</ele>
        <time>2021-08-20T16:59:09Z</time>
      </trkpt>
      <trkpt lat="42.87728" lon="0.0106">
        <ele>791</ele>
        <time>2021-08-20T16:59:28Z</time>
      </trkpt>
      <trkpt lat="42.87763" lon="0.0115">
        <ele>798</ele>
        <time>2021-08-20T16:59:41Z</time>
      </trkpt>
      <trkpt lat="42.87796" lon="0.01243">
        <ele>806</ele>
        <time>2021-08-20T16:59:55Z</time>
      </trkpt>
      <trkpt lat="42.87812" lon="0.013">
        <ele>807</ele>
        <time>2021-08-20T17:00:03Z</time>
      </trkpt>
      <trkpt lat="42.87815" lon="0.01321">
        <ele>807</ele>
        <time>2021-08-20T17:00:05Z</time>
      </trkpt>
      <trkpt lat="42.87818" lon="0.01519">
        <ele>819</ele>
        <time>2021-08-20T17:00:31Z</time>
      </trkpt>
      <trkpt lat="42.8782" lon="0.01557">
        <ele>819</ele>
        <time>2021-08-20T17:00:36Z</time>
      </trkpt>
      <trkpt lat="42.87825" lon="0.01629">
        <ele>821</ele>
        <time>2021-08-20T17:00:46Z</time>
      </trkpt>
      <trkpt lat="42.87835" lon="0.0177">
        <ele>826</ele>
        <time>2021-08-20T17:01:04Z</time>
      </trkpt>
      <trkpt lat="42.87838" lon="0.01832">
        <ele>828</ele>
        <time>2021-08-20T17:01:12Z</time>
      </trkpt>
      <trkpt lat="42.87843" lon="0.0196">
        <ele>840</ele>
        <time>2021-08-20T17:01:29Z</time>
      </trkpt>
      <trkpt lat="42.87851" lon="0.02149">
        <ele>856</ele>
        <time>2021-08-20T17:01:54Z</time>
      </trkpt>
      <trkpt lat="42.87854" lon="0.02203">
        <ele>861</ele>
        <time>2021-08-20T17:02:01Z</time>
      </trkpt>
      <trkpt lat="42.87855" lon="0.02224">
        <ele>863</ele>
        <time>2021-08-20T17:02:03Z</time>
      </trkpt>
      <trkpt lat="42.87858" lon="0.02254">
        <ele>866</ele>
        <time>2021-08-20T17:02:07Z</time>
      </trkpt>
      <trkpt lat="42.87865" lon="0.02293">
        <ele>868</ele>
        <time>2021-08-20T17:02:13Z</time>
      </trkpt>
      <trkpt lat="42.8788" lon="0.02352">
        <ele>870</ele>
        <time>2021-08-20T17:02:21Z</time>
      </trkpt>
      <trkpt lat="42.8792" lon="0.02544">
        <ele>877</ele>
        <time>2021-08-20T17:02:47Z</time>
      </trkpt>
      <trkpt lat="42.87929" lon="0.0258">
        <ele>880</ele>
        <time>2021-08-20T17:02:52Z</time>
      </trkpt>
      <trkpt lat="42.87937" lon="0.02601">
        <ele>882</ele>
        <time>2021-08-20T17:02:55Z</time>
      </trkpt>
      <trkpt lat="42.87948" lon="0.02625">
        <ele>884</ele>
        <time>2021-08-20T17:02:59Z</time>
      </trkpt>
      <trkpt lat="42.87957" lon="0.02641">
        <ele>884</ele>
        <time>2021-08-20T17:03:01Z</time>
      </trkpt>
      <trkpt lat="42.87983" lon="0.02674">
        <ele>882</ele>
        <time>2021-08-20T17:03:07Z</time>
      </trkpt>
      <trkpt lat="42.88183" lon="0.02902">
        <ele>913</ele>
        <time>2021-08-20T17:03:54Z</time>
      </trkpt>
      <trkpt lat="42.883" lon="0.03035">
        <ele>926</ele>
        <time>2021-08-20T17:04:21Z</time>
      </trkpt>
      <trkpt lat="42.88312" lon="0.03052">
        <ele>926</ele>
        <time>2021-08-20T17:04:24Z</time>
      </trkpt>
      <trkpt lat="42.8832" lon="0.03068">
        <ele>925</ele>
        <time>2021-08-20T17:04:27Z</time>
      </trkpt>
      <trkpt lat="42.88324" lon="0.03081">
        <ele>923</ele>
        <time>2021-08-20T17:04:28Z</time>
      </trkpt>
      <trkpt lat="42.88329" lon="0.03105">
        <ele>925</ele>
        <time>2021-08-20T17:04:32Z</time>
      </trkpt>
      <trkpt lat="42.88333" lon="0.03143">
        <ele>928</ele>
        <time>2021-08-20T17:04:37Z</time>
      </trkpt>
      <trkpt lat="42.88332" lon="0.03154">
        <ele>930</ele>
        <time>2021-08-20T17:04:38Z</time>
      </trkpt>
      <trkpt lat="42.88326" lon="0.03179">
        <ele>934</ele>
        <time>2021-08-20T17:04:41Z</time>
      </trkpt>
      <trkpt lat="42.88308" lon="0.03229">
        <ele>945</ele>
        <time>2021-08-20T17:04:49Z</time>
      </trkpt>
      <trkpt lat="42.883" lon="0.03266">
        <ele>951</ele>
        <time>2021-08-20T17:04:54Z</time>
      </trkpt>
      <trkpt lat="42.88297" lon="0.03287">
        <ele>952</ele>
        <time>2021-08-20T17:04:57Z</time>
      </trkpt>
      <trkpt lat="42.88296" lon="0.03316">
        <ele>953</ele>
        <time>2021-08-20T17:05:00Z</time>
      </trkpt>
      <trkpt lat="42.88298" lon="0.0344">
        <ele>956</ele>
        <time>2021-08-20T17:05:17Z</time>
      </trkpt>
      <trkpt lat="42.88288" lon="0.03488">
        <ele>960</ele>
        <time>2021-08-20T17:05:23Z</time>
      </trkpt>
      <trkpt lat="42.88276" lon="0.03522">
        <ele>963</ele>
        <time>2021-08-20T17:05:28Z</time>
      </trkpt>
      <trkpt lat="42.88272" lon="0.03543">
        <ele>963</ele>
        <time>2021-08-20T17:05:31Z</time>
      </trkpt>
      <trkpt lat="42.8827" lon="0.03563">
        <ele>963</ele>
        <time>2021-08-20T17:05:33Z</time>
      </trkpt>
      <trkpt lat="42.88269" lon="0.03681">
        <ele>969</ele>
        <time>2021-08-20T17:05:49Z</time>
      </trkpt>
      <trkpt lat="42.88276" lon="0.03727">
        <ele>973</ele>
        <time>2021-08-20T17:05:55Z</time>
      </trkpt>
      <trkpt lat="42.88279" lon="0.03742">
        <ele>974</ele>
        <time>2021-08-20T17:05:57Z</time>
      </trkpt>
      <trkpt lat="42.88284" lon="0.03766">
        <ele>976</ele>
        <time>2021-08-20T17:06:00Z</time>
      </trkpt>
      <trkpt lat="42.88289" lon="0.03785">
        <ele>976</ele>
        <time>2021-08-20T17:06:03Z</time>
      </trkpt>
      <trkpt lat="42.88292" lon="0.03796">
        <ele>977</ele>
        <time>2021-08-20T17:06:04Z</time>
      </trkpt>
      <trkpt lat="42.88296" lon="0.03805">
        <ele>977</ele>
        <time>2021-08-20T17:06:06Z</time>
      </trkpt>
      <trkpt lat="42.88301" lon="0.03818">
        <ele>977</ele>
        <time>2021-08-20T17:06:08Z</time>
      </trkpt>
      <trkpt lat="42.88348" lon="0.03937">
        <ele>983</ele>
        <time>2021-08-20T17:06:25Z</time>
      </trkpt>
      <trkpt lat="42.88367" lon="0.03983">
        <ele>989</ele>
        <time>2021-08-20T17:06:32Z</time>
      </trkpt>
      <trkpt lat="42.88373" lon="0.04">
        <ele>990</ele>
        <time>2021-08-20T17:06:35Z</time>
      </trkpt>
      <trkpt lat="42.88376" lon="0.04013">
        <ele>992</ele>
        <time>2021-08-20T17:06:36Z</time>
      </trkpt>
      <trkpt lat="42.88376" lon="0.04021">
        <ele>993</ele>
        <time>2021-08-20T17:06:37Z</time>
      </trkpt>
      <trkpt lat="42.88374" lon="0.04025">
        <ele>994</ele>
        <time>2021-08-20T17:06:38Z</time>
      </trkpt>
      <trkpt lat="42.88362" lon="0.04036">
        <ele>996</ele>
        <time>2021-08-20T17:06:41Z</time>
      </trkpt>
      <trkpt lat="42.88354" lon="0.04033">
        <ele>996</ele>
        <time>2021-08-20T17:06:42Z</time>
      </trkpt>
      <trkpt lat="42.8833" lon="0.03995">
        <ele>988</ele>
        <time>2021-08-20T17:06:49Z</time>
      </trkpt>
      <trkpt lat="42.88321" lon="0.03982">
        <ele>988</ele>
        <time>2021-08-20T17:06:51Z</time>
      </trkpt>
      <trkpt lat="42.8831" lon="0.03973">
        <ele>989</ele>
        <time>2021-08-20T17:06:53Z</time>
      </trkpt>
      <trkpt lat="42.88272" lon="0.03947">
        <ele>995</ele>
        <time>2021-08-20T17:07:01Z</time>
      </trkpt>
      <trkpt lat="42.88262" lon="0.03948">
        <ele>997</ele>
        <time>2021-08-20T17:07:03Z</time>
      </trkpt>
      <trkpt lat="42.88257" lon="0.03951">
        <ele>998</ele>
        <time>2021-08-20T17:07:04Z</time>
      </trkpt>
      <trkpt lat="42.88254" lon="0.03958">
        <ele>999</ele>
        <time>2021-08-20T17:07:05Z</time>
      </trkpt>
      <trkpt lat="42.88254" lon="0.03966">
        <ele>1000</ele>
        <time>2021-08-20T17:07:06Z</time>
      </trkpt>
      <trkpt lat="42.88255" lon="0.03973">
        <ele>1000</ele>
        <time>2021-08-20T17:07:07Z</time>
      </trkpt>
      <trkpt lat="42.88259" lon="0.0398">
        <ele>999</ele>
        <time>2021-08-20T17:07:08Z</time>
      </trkpt>
      <trkpt lat="42.88265" lon="0.03984">
        <ele>999</ele>
        <time>2021-08-20T17:07:09Z</time>
      </trkpt>
      <trkpt lat="42.88283" lon="0.03988">
        <ele>996</ele>
        <time>2021-08-20T17:07:12Z</time>
      </trkpt>
      <trkpt lat="42.88294" lon="0.03992">
        <ele>994</ele>
        <time>2021-08-20T17:07:14Z</time>
      </trkpt>
      <trkpt lat="42.88302" lon="0.03998">
        <ele>993</ele>
        <time>2021-08-20T17:07:16Z</time>
      </trkpt>
      <trkpt lat="42.88311" lon="0.04007">
        <ele>994</ele>
        <time>2021-08-20T17:07:18Z</time>
      </trkpt>
      <trkpt lat="42.88334" lon="0.04042">
        <ele>1000</ele>
        <time>2021-08-20T17:07:24Z</time>
      </trkpt>
      <trkpt lat="42.88373" lon="0.04096">
        <ele>1006</ele>
        <time>2021-08-20T17:07:34Z</time>
      </trkpt>
      <trkpt lat="42.88423" lon="0.04165">
        <ele>1014</ele>
        <time>2021-08-20T17:07:47Z</time>
      </trkpt>
      <trkpt lat="42.88459" lon="0.04215">
        <ele>1022</ele>
        <time>2021-08-20T17:07:56Z</time>
      </trkpt>
      <trkpt lat="42.88518" lon="0.04283">
        <ele>1031</ele>
        <time>2021-08-20T17:08:09Z</time>
      </trkpt>
      <trkpt lat="42.88553" lon="0.04347">
        <ele>1035</ele>
        <time>2021-08-20T17:08:20Z</time>
      </trkpt>
      <trkpt lat="42.88585" lon="0.04395">
        <ele>1037</ele>
        <time>2021-08-20T17:08:28Z</time>
      </trkpt>
      <trkpt lat="42.88618" lon="0.04437">
        <ele>1043</ele>
        <time>2021-08-20T17:08:36Z</time>
      </trkpt>
      <trkpt lat="42.88638" lon="0.04458">
        <ele>1044</ele>
        <time>2021-08-20T17:08:41Z</time>
      </trkpt>
      <trkpt lat="42.88671" lon="0.04487">
        <ele>1044</ele>
        <time>2021-08-20T17:08:48Z</time>
      </trkpt>
      <trkpt lat="42.88713" lon="0.0452">
        <ele>1048</ele>
        <time>2021-08-20T17:08:56Z</time>
      </trkpt>
      <trkpt lat="42.888" lon="0.04606">
        <ele>1056</ele>
        <time>2021-08-20T17:09:16Z</time>
      </trkpt>
      <trkpt lat="42.88831" lon="0.04623">
        <ele>1057</ele>
        <time>2021-08-20T17:09:21Z</time>
      </trkpt>
      <trkpt lat="42.88853" lon="0.04631">
        <ele>1061</ele>
        <time>2021-08-20T17:09:26Z</time>
      </trkpt>
      <trkpt lat="42.88878" lon="0.04642">
        <ele>1064</ele>
        <time>2021-08-20T17:09:30Z</time>
      </trkpt>
      <trkpt lat="42.88938" lon="0.04674">
        <ele>1067</ele>
        <time>2021-08-20T17:09:42Z</time>
      </trkpt>
      <trkpt lat="42.89006" lon="0.04703">
        <ele>1076</ele>
        <time>2021-08-20T17:09:54Z</time>
      </trkpt>
      <trkpt lat="42.89016" lon="0.04709">
        <ele>1077</ele>
        <time>2021-08-20T17:09:56Z</time>
      </trkpt>
      <trkpt lat="42.89027" lon="0.0472">
        <ele>1079</ele>
        <time>2021-08-20T17:09:59Z</time>
      </trkpt>
      <trkpt lat="42.89035" lon="0.04729">
        <ele>1079</ele>
        <time>2021-08-20T17:10:01Z</time>
      </trkpt>
      <trkpt lat="42.8911" lon="0.04845">
        <ele>1094</ele>
        <time>2021-08-20T17:10:21Z</time>
      </trkpt>
      <trkpt lat="42.89112" lon="0.04857">
        <ele>1095</ele>
        <time>2021-08-20T17:10:22Z</time>
      </trkpt>
      <trkpt lat="42.8911" lon="0.0487">
        <ele>1095</ele>
        <time>2021-08-20T17:10:24Z</time>
      </trkpt>
      <trkpt lat="42.89103" lon="0.04877">
        <ele>1095</ele>
        <time>2021-08-20T17:10:26Z</time>
      </trkpt>
      <trkpt lat="42.89097" lon="0.04879">
        <ele>1095</ele>
        <time>2021-08-20T17:10:27Z</time>
      </trkpt>
      <trkpt lat="42.89091" lon="0.04878">
        <ele>1095</ele>
        <time>2021-08-20T17:10:28Z</time>
      </trkpt>
      <trkpt lat="42.89085" lon="0.04874">
        <ele>1094</ele>
        <time>2021-08-20T17:10:29Z</time>
      </trkpt>
      <trkpt lat="42.89066" lon="0.04853">
        <ele>1093</ele>
        <time>2021-08-20T17:10:33Z</time>
      </trkpt>
      <trkpt lat="42.89042" lon="0.04812">
        <ele>1089</ele>
        <time>2021-08-20T17:10:40Z</time>
      </trkpt>
      <trkpt lat="42.89033" lon="0.04803">
        <ele>1088</ele>
        <time>2021-08-20T17:10:42Z</time>
      </trkpt>
      <trkpt lat="42.89025" lon="0.04802">
        <ele>1088</ele>
        <time>2021-08-20T17:10:44Z</time>
      </trkpt>
      <trkpt lat="42.89021" lon="0.04803">
        <ele>1089</ele>
        <time>2021-08-20T17:10:44Z</time>
      </trkpt>
      <trkpt lat="42.89014" lon="0.04811">
        <ele>1090</ele>
        <time>2021-08-20T17:10:46Z</time>
      </trkpt>
      <trkpt lat="42.89011" lon="0.04824">
        <ele>1093</ele>
        <time>2021-08-20T17:10:48Z</time>
      </trkpt>
      <trkpt lat="42.89014" lon="0.04836">
        <ele>1095</ele>
        <time>2021-08-20T17:10:49Z</time>
      </trkpt>
      <trkpt lat="42.89045" lon="0.04877">
        <ele>1098</ele>
        <time>2021-08-20T17:10:57Z</time>
      </trkpt>
      <trkpt lat="42.89051" lon="0.04892">
        <ele>1099</ele>
        <time>2021-08-20T17:10:59Z</time>
      </trkpt>
      <trkpt lat="42.89054" lon="0.04911">
        <ele>1102</ele>
        <time>2021-08-20T17:11:02Z</time>
      </trkpt>
      <trkpt lat="42.89057" lon="0.04953">
        <ele>1110</ele>
        <time>2021-08-20T17:11:07Z</time>
      </trkpt>
      <trkpt lat="42.89063" lon="0.04973">
        <ele>1113</ele>
        <time>2021-08-20T17:11:10Z</time>
      </trkpt>
      <trkpt lat="42.8907" lon="0.04987">
        <ele>1115</ele>
        <time>2021-08-20T17:11:12Z</time>
      </trkpt>
      <trkpt lat="42.89112" lon="0.05047">
        <ele>1123</ele>
        <time>2021-08-20T17:11:23Z</time>
      </trkpt>
      <trkpt lat="42.89122" lon="0.05059">
        <ele>1123</ele>
        <time>2021-08-20T17:11:25Z</time>
      </trkpt>
      <trkpt lat="42.89143" lon="0.05074">
        <ele>1119</ele>
        <time>2021-08-20T17:11:30Z</time>
      </trkpt>
      <trkpt lat="42.89185" lon="0.05095">
        <ele>1115</ele>
        <time>2021-08-20T17:11:38Z</time>
      </trkpt>
      <trkpt lat="42.892" lon="0.05107">
        <ele>1117</ele>
        <time>2021-08-20T17:11:41Z</time>
      </trkpt>
      <trkpt lat="42.89206" lon="0.05114">
        <ele>1117</ele>
        <time>2021-08-20T17:11:42Z</time>
      </trkpt>
      <trkpt lat="42.89277" lon="0.05258">
        <ele>1130</ele>
        <time>2021-08-20T17:12:05Z</time>
      </trkpt>
      <trkpt lat="42.89288" lon="0.05293">
        <ele>1136</ele>
        <time>2021-08-20T17:12:10Z</time>
      </trkpt>
      <trkpt lat="42.89297" lon="0.05353">
        <ele>1146</ele>
        <time>2021-08-20T17:12:18Z</time>
      </trkpt>
      <trkpt lat="42.89302" lon="0.05377">
        <ele>1149</ele>
        <time>2021-08-20T17:12:21Z</time>
      </trkpt>
      <trkpt lat="42.89313" lon="0.05409">
        <ele>1151</ele>
        <time>2021-08-20T17:12:26Z</time>
      </trkpt>
      <trkpt lat="42.89406" lon="0.0562">
        <ele>1165</ele>
        <time>2021-08-20T17:12:58Z</time>
      </trkpt>
      <trkpt lat="42.89417" lon="0.05651">
        <ele>1165</ele>
        <time>2021-08-20T17:13:02Z</time>
      </trkpt>
      <trkpt lat="42.89438" lon="0.05723">
        <ele>1176</ele>
        <time>2021-08-20T17:13:12Z</time>
      </trkpt>
      <trkpt lat="42.89447" lon="0.05746">
        <ele>1178</ele>
        <time>2021-08-20T17:13:16Z</time>
      </trkpt>
      <trkpt lat="42.89466" lon="0.05778">
        <ele>1181</ele>
        <time>2021-08-20T17:13:21Z</time>
      </trkpt>
      <trkpt lat="42.89487" lon="0.05812">
        <ele>1181</ele>
        <time>2021-08-20T17:13:27Z</time>
      </trkpt>
      <trkpt lat="42.89513" lon="0.05837">
        <ele>1181</ele>
        <time>2021-08-20T17:13:33Z</time>
      </trkpt>
      <trkpt lat="42.89553" lon="0.05863">
        <ele>1184</ele>
        <time>2021-08-20T17:13:40Z</time>
      </trkpt>
      <trkpt lat="42.89558" lon="0.05867">
        <ele>1184</ele>
        <time>2021-08-20T17:13:41Z</time>
      </trkpt>
      <trkpt lat="42.89561" lon="0.05874">
        <ele>1185</ele>
        <time>2021-08-20T17:13:42Z</time>
      </trkpt>
      <trkpt lat="42.89563" lon="0.05881">
        <ele>1185</ele>
        <time>2021-08-20T17:13:43Z</time>
      </trkpt>
      <trkpt lat="42.89562" lon="0.05896">
        <ele>1186</ele>
        <time>2021-08-20T17:13:45Z</time>
      </trkpt>
      <trkpt lat="42.89554" lon="0.05907">
        <ele>1188</ele>
        <time>2021-08-20T17:13:47Z</time>
      </trkpt>
      <trkpt lat="42.8955" lon="0.0591">
        <ele>1188</ele>
        <time>2021-08-20T17:13:48Z</time>
      </trkpt>
      <trkpt lat="42.89537" lon="0.0591">
        <ele>1189</ele>
        <time>2021-08-20T17:13:51Z</time>
      </trkpt>
      <trkpt lat="42.89523" lon="0.05897">
        <ele>1188</ele>
        <time>2021-08-20T17:13:54Z</time>
      </trkpt>
      <trkpt lat="42.89519" lon="0.05896">
        <ele>1188</ele>
        <time>2021-08-20T17:13:54Z</time>
      </trkpt>
      <trkpt lat="42.89514" lon="0.05895">
        <ele>1188</ele>
        <time>2021-08-20T17:13:55Z</time>
      </trkpt>
      <trkpt lat="42.89503" lon="0.05898">
        <ele>1188</ele>
        <time>2021-08-20T17:13:57Z</time>
      </trkpt>
      <trkpt lat="42.89499" lon="0.05903">
        <ele>1190</ele>
        <time>2021-08-20T17:13:58Z</time>
      </trkpt>
      <trkpt lat="42.89493" lon="0.05917">
        <ele>1194</ele>
        <time>2021-08-20T17:14:00Z</time>
      </trkpt>
      <trkpt lat="42.89494" lon="0.05931">
        <ele>1197</ele>
        <time>2021-08-20T17:14:02Z</time>
      </trkpt>
      <trkpt lat="42.89497" lon="0.0594">
        <ele>1198</ele>
        <time>2021-08-20T17:14:03Z</time>
      </trkpt>
      <trkpt lat="42.89502" lon="0.05946">
        <ele>1198</ele>
        <time>2021-08-20T17:14:05Z</time>
      </trkpt>
      <trkpt lat="42.8951" lon="0.0595">
        <ele>1198</ele>
        <time>2021-08-20T17:14:06Z</time>
      </trkpt>
      <trkpt lat="42.8952" lon="0.0595">
        <ele>1198</ele>
        <time>2021-08-20T17:14:08Z</time>
      </trkpt>
      <trkpt lat="42.8956" lon="0.05944">
        <ele>1193</ele>
        <time>2021-08-20T17:14:15Z</time>
      </trkpt>
      <trkpt lat="42.89575" lon="0.05948">
        <ele>1192</ele>
        <time>2021-08-20T17:14:18Z</time>
      </trkpt>
      <trkpt lat="42.89591" lon="0.05967">
        <ele>1195</ele>
        <time>2021-08-20T17:14:22Z</time>
      </trkpt>
      <trkpt lat="42.89598" lon="0.05982">
        <ele>1198</ele>
        <time>2021-08-20T17:14:24Z</time>
      </trkpt>
      <trkpt lat="42.896" lon="0.05991">
        <ele>1199</ele>
        <time>2021-08-20T17:14:25Z</time>
      </trkpt>
      <trkpt lat="42.89601" lon="0.06">
        <ele>1200</ele>
        <time>2021-08-20T17:14:26Z</time>
      </trkpt>
      <trkpt lat="42.89602" lon="0.06028">
        <ele>1203</ele>
        <time>2021-08-20T17:14:30Z</time>
      </trkpt>
      <trkpt lat="42.89611" lon="0.06093">
        <ele>1210</ele>
        <time>2021-08-20T17:14:39Z</time>
      </trkpt>
      <trkpt lat="42.89614" lon="0.06209">
        <ele>1218</ele>
        <time>2021-08-20T17:14:54Z</time>
      </trkpt>
      <trkpt lat="42.89624" lon="0.06339">
        <ele>1227</ele>
        <time>2021-08-20T17:15:11Z</time>
      </trkpt>
      <trkpt lat="42.89655" lon="0.06427">
        <ele>1231</ele>
        <time>2021-08-20T17:15:23Z</time>
      </trkpt>
      <trkpt lat="42.89656" lon="0.06435">
        <ele>1232</ele>
        <time>2021-08-20T17:15:25Z</time>
      </trkpt>
      <trkpt lat="42.89662" lon="0.06451">
        <ele>1232</ele>
        <time>2021-08-20T17:15:27Z</time>
      </trkpt>
      <trkpt lat="42.89667" lon="0.06459">
        <ele>1231</ele>
        <time>2021-08-20T17:15:28Z</time>
      </trkpt>
      <trkpt lat="42.89709" lon="0.06569">
        <ele>1244</ele>
        <time>2021-08-20T17:15:44Z</time>
      </trkpt>
      <trkpt lat="42.89713" lon="0.06573">
        <ele>1244</ele>
        <time>2021-08-20T17:15:45Z</time>
      </trkpt>
      <trkpt lat="42.89714" lon="0.06587">
        <ele>1244</ele>
        <time>2021-08-20T17:15:47Z</time>
      </trkpt>
      <trkpt lat="42.89767" lon="0.06735">
        <ele>1254</ele>
        <time>2021-08-20T17:16:09Z</time>
      </trkpt>
      <trkpt lat="42.89773" lon="0.06762">
        <ele>1258</ele>
        <time>2021-08-20T17:16:12Z</time>
      </trkpt>
      <trkpt lat="42.89782" lon="0.06825">
        <ele>1268</ele>
        <time>2021-08-20T17:16:21Z</time>
      </trkpt>
      <trkpt lat="42.89831" lon="0.07103">
        <ele>1285</ele>
        <time>2021-08-20T17:16:58Z</time>
      </trkpt>
      <trkpt lat="42.89839" lon="0.07153">
        <ele>1290</ele>
        <time>2021-08-20T17:17:05Z</time>
      </trkpt>
      <trkpt lat="42.8984" lon="0.07188">
        <ele>1294</ele>
        <time>2021-08-20T17:17:09Z</time>
      </trkpt>
      <trkpt lat="42.8984" lon="0.07223">
        <ele>1298</ele>
        <time>2021-08-20T17:17:14Z</time>
      </trkpt>
      <trkpt lat="42.89842" lon="0.07239">
        <ele>1300</ele>
        <time>2021-08-20T17:17:16Z</time>
      </trkpt>
      <trkpt lat="42.8985" lon="0.07272">
        <ele>1302</ele>
        <time>2021-08-20T17:17:20Z</time>
      </trkpt>
      <trkpt lat="42.89865" lon="0.07384">
        <ele>1307</ele>
        <time>2021-08-20T17:17:35Z</time>
      </trkpt>
      <trkpt lat="42.89868" lon="0.07478">
        <ele>1313</ele>
        <time>2021-08-20T17:17:47Z</time>
      </trkpt>
      <trkpt lat="42.8987" lon="0.07491">
        <ele>1313</ele>
        <time>2021-08-20T17:17:49Z</time>
      </trkpt>
      <trkpt lat="42.89875" lon="0.07503">
        <ele>1312</ele>
        <time>2021-08-20T17:17:51Z</time>
      </trkpt>
      <trkpt lat="42.89914" lon="0.07574">
        <ele>1308</ele>
        <time>2021-08-20T17:18:03Z</time>
      </trkpt>
      <trkpt lat="42.89919" lon="0.07583">
        <ele>1308</ele>
        <time>2021-08-20T17:18:04Z</time>
      </trkpt>
      <trkpt lat="42.89937" lon="0.07616">
        <ele>1312</ele>
        <time>2021-08-20T17:18:09Z</time>
      </trkpt>
      <trkpt lat="42.89947" lon="0.07643">
        <ele>1315</ele>
        <time>2021-08-20T17:18:13Z</time>
      </trkpt>
      <trkpt lat="42.8995" lon="0.07659">
        <ele>1316</ele>
        <time>2021-08-20T17:18:15Z</time>
      </trkpt>
      <trkpt lat="42.89954" lon="0.07704">
        <ele>1321</ele>
        <time>2021-08-20T17:18:21Z</time>
      </trkpt>
      <trkpt lat="42.89968" lon="0.0776">
        <ele>1326</ele>
        <time>2021-08-20T17:18:29Z</time>
      </trkpt>
      <trkpt lat="42.89979" lon="0.07813">
        <ele>1329</ele>
        <time>2021-08-20T17:18:36Z</time>
      </trkpt>
      <trkpt lat="42.90062" lon="0.08065">
        <ele>1357</ele>
        <time>2021-08-20T17:19:12Z</time>
      </trkpt>
      <trkpt lat="42.90074" lon="0.08105">
        <ele>1360</ele>
        <time>2021-08-20T17:19:18Z</time>
      </trkpt>
      <trkpt lat="42.90094" lon="0.08186">
        <ele>1373</ele>
        <time>2021-08-20T17:19:29Z</time>
      </trkpt>
      <trkpt lat="42.90103" lon="0.08209">
        <ele>1374</ele>
        <time>2021-08-20T17:19:32Z</time>
      </trkpt>
      <trkpt lat="42.90137" lon="0.08274">
        <ele>1373</ele>
        <time>2021-08-20T17:19:43Z</time>
      </trkpt>
      <trkpt lat="42.90148" lon="0.083">
        <ele>1372</ele>
        <time>2021-08-20T17:19:47Z</time>
      </trkpt>
      <trkpt lat="42.90155" lon="0.0832">
        <ele>1372</ele>
        <time>2021-08-20T17:19:50Z</time>
      </trkpt>
      <trkpt lat="42.90159" lon="0.08345">
        <ele>1373</ele>
        <time>2021-08-20T17:19:53Z</time>
      </trkpt>
      <trkpt lat="42.90156" lon="0.08398">
        <ele>1384</ele>
        <time>2021-08-20T17:20:00Z</time>
      </trkpt>
      <trkpt lat="42.90158" lon="0.08421">
        <ele>1387</ele>
        <time>2021-08-20T17:20:03Z</time>
      </trkpt>
      <trkpt lat="42.90168" lon="0.08482">
        <ele>1392</ele>
        <time>2021-08-20T17:20:11Z</time>
      </trkpt>
      <trkpt lat="42.90188" lon="0.08681">
        <ele>1412</ele>
        <time>2021-08-20T17:20:37Z</time>
      </trkpt>
      <trkpt lat="42.90201" lon="0.08738">
        <ele>1411</ele>
        <time>2021-08-20T17:20:45Z</time>
      </trkpt>
      <trkpt lat="42.90218" lon="0.08788">
        <ele>1409</ele>
        <time>2021-08-20T17:20:52Z</time>
      </trkpt>
      <trkpt lat="42.90272" lon="0.09004">
        <ele>1416</ele>
        <time>2021-08-20T17:21:22Z</time>
      </trkpt>
      <trkpt lat="42.90273" lon="0.09033">
        <ele>1416</ele>
        <time>2021-08-20T17:21:26Z</time>
      </trkpt>
      <trkpt lat="42.90267" lon="0.09081">
        <ele>1418</ele>
        <time>2021-08-20T17:21:32Z</time>
      </trkpt>
      <trkpt lat="42.90265" lon="0.09104">
        <ele>1421</ele>
        <time>2021-08-20T17:21:35Z</time>
      </trkpt>
      <trkpt lat="42.90268" lon="0.09146">
        <ele>1425</ele>
        <time>2021-08-20T17:21:41Z</time>
      </trkpt>
      <trkpt lat="42.90294" lon="0.09251">
        <ele>1425</ele>
        <time>2021-08-20T17:21:55Z</time>
      </trkpt>
      <trkpt lat="42.90322" lon="0.09401">
        <ele>1435</ele>
        <time>2021-08-20T17:22:15Z</time>
      </trkpt>
      <trkpt lat="42.90325" lon="0.09423">
        <ele>1435</ele>
        <time>2021-08-20T17:22:18Z</time>
      </trkpt>
      <trkpt lat="42.90328" lon="0.09499">
        <ele>1438</ele>
        <time>2021-08-20T17:22:28Z</time>
      </trkpt>
      <trkpt lat="42.9033" lon="0.09647">
        <ele>1447</ele>
        <time>2021-08-20T17:22:47Z</time>
      </trkpt>
      <trkpt lat="42.90334" lon="0.09749">
        <ele>1440</ele>
        <time>2021-08-20T17:23:01Z</time>
      </trkpt>
      <trkpt lat="42.90351" lon="0.09894">
        <ele>1456</ele>
        <time>2021-08-20T17:23:20Z</time>
      </trkpt>
      <trkpt lat="42.90358" lon="0.09986">
        <ele>1459</ele>
        <time>2021-08-20T17:23:32Z</time>
      </trkpt>
      <trkpt lat="42.90357" lon="0.09999">
        <ele>1460</ele>
        <time>2021-08-20T17:23:34Z</time>
      </trkpt>
      <trkpt lat="42.90352" lon="0.10021">
        <ele>1459</ele>
        <time>2021-08-20T17:23:37Z</time>
      </trkpt>
      <trkpt lat="42.90349" lon="0.10027">
        <ele>1459</ele>
        <time>2021-08-20T17:23:38Z</time>
      </trkpt>
      <trkpt lat="42.90334" lon="0.10047">
        <ele>1460</ele>
        <time>2021-08-20T17:23:41Z</time>
      </trkpt>
      <trkpt lat="42.90323" lon="0.10067">
        <ele>1462</ele>
        <time>2021-08-20T17:23:45Z</time>
      </trkpt>
      <trkpt lat="42.90319" lon="0.10086">
        <ele>1461</ele>
        <time>2021-08-20T17:23:47Z</time>
      </trkpt>
      <trkpt lat="42.90322" lon="0.10111">
        <ele>1459</ele>
        <time>2021-08-20T17:23:50Z</time>
      </trkpt>
      <trkpt lat="42.90325" lon="0.10124">
        <ele>1457</ele>
        <time>2021-08-20T17:23:52Z</time>
      </trkpt>
      <trkpt lat="42.90333" lon="0.1017">
        <ele>1453</ele>
        <time>2021-08-20T17:23:58Z</time>
      </trkpt>
      <trkpt lat="42.90343" lon="0.10263">
        <ele>1460</ele>
        <time>2021-08-20T17:24:11Z</time>
      </trkpt>
      <trkpt lat="42.90347" lon="0.10276">
        <ele>1460</ele>
        <time>2021-08-20T17:24:12Z</time>
      </trkpt>
      <trkpt lat="42.90355" lon="0.10296">
        <ele>1462</ele>
        <time>2021-08-20T17:24:15Z</time>
      </trkpt>
      <trkpt lat="42.90373" lon="0.10331">
        <ele>1464</ele>
        <time>2021-08-20T17:24:21Z</time>
      </trkpt>
      <trkpt lat="42.90387" lon="0.10351">
        <ele>1467</ele>
        <time>2021-08-20T17:24:25Z</time>
      </trkpt>
      <trkpt lat="42.90396" lon="0.1036">
        <ele>1468</ele>
        <time>2021-08-20T17:24:27Z</time>
      </trkpt>
      <trkpt lat="42.90405" lon="0.10366">
        <ele>1470</ele>
        <time>2021-08-20T17:24:28Z</time>
      </trkpt>
      <trkpt lat="42.90423" lon="0.10366">
        <ele>1471</ele>
        <time>2021-08-20T17:24:32Z</time>
      </trkpt>
      <trkpt lat="42.90438" lon="0.10358">
        <ele>1471</ele>
        <time>2021-08-20T17:24:34Z</time>
      </trkpt>
      <trkpt lat="42.90449" lon="0.10346">
        <ele>1471</ele>
        <time>2021-08-20T17:24:37Z</time>
      </trkpt>
      <trkpt lat="42.90509" lon="0.10274">
        <ele>1474</ele>
        <time>2021-08-20T17:24:51Z</time>
      </trkpt>
      <trkpt lat="42.9052" lon="0.10253">
        <ele>1477</ele>
        <time>2021-08-20T17:24:55Z</time>
      </trkpt>
      <trkpt lat="42.90525" lon="0.10235">
        <ele>1479</ele>
        <time>2021-08-20T17:24:57Z</time>
      </trkpt>
      <trkpt lat="42.90526" lon="0.10219">
        <ele>1480</ele>
        <time>2021-08-20T17:24:59Z</time>
      </trkpt>
      <trkpt lat="42.90525" lon="0.10178">
        <ele>1481</ele>
        <time>2021-08-20T17:25:04Z</time>
      </trkpt>
      <trkpt lat="42.90528" lon="0.10168">
        <ele>1482</ele>
        <time>2021-08-20T17:25:06Z</time>
      </trkpt>
      <trkpt lat="42.90532" lon="0.10159">
        <ele>1483</ele>
        <time>2021-08-20T17:25:07Z</time>
      </trkpt>
      <trkpt lat="42.90538" lon="0.10156">
        <ele>1485</ele>
        <time>2021-08-20T17:25:08Z</time>
      </trkpt>
      <trkpt lat="42.90543" lon="0.10157">
        <ele>1486</ele>
        <time>2021-08-20T17:25:09Z</time>
      </trkpt>
      <trkpt lat="42.9055" lon="0.10163">
        <ele>1489</ele>
        <time>2021-08-20T17:25:11Z</time>
      </trkpt>
      <trkpt lat="42.90557" lon="0.1018">
        <ele>1491</ele>
        <time>2021-08-20T17:25:13Z</time>
      </trkpt>
      <trkpt lat="42.90564" lon="0.10207">
        <ele>1493</ele>
        <time>2021-08-20T17:25:17Z</time>
      </trkpt>
      <trkpt lat="42.90565" lon="0.10234">
        <ele>1494</ele>
        <time>2021-08-20T17:25:21Z</time>
      </trkpt>
      <trkpt lat="42.90561" lon="0.10307">
        <ele>1497</ele>
        <time>2021-08-20T17:25:30Z</time>
      </trkpt>
      <trkpt lat="42.90554" lon="0.10361">
        <ele>1500</ele>
        <time>2021-08-20T17:25:37Z</time>
      </trkpt>
      <trkpt lat="42.9055" lon="0.10383">
        <ele>1501</ele>
        <time>2021-08-20T17:25:40Z</time>
      </trkpt>
      <trkpt lat="42.90542" lon="0.10404">
        <ele>1501</ele>
        <time>2021-08-20T17:25:43Z</time>
      </trkpt>
      <trkpt lat="42.90522" lon="0.10434">
        <ele>1498</ele>
        <time>2021-08-20T17:25:49Z</time>
      </trkpt>
      <trkpt lat="42.90519" lon="0.10442">
        <ele>1497</ele>
        <time>2021-08-20T17:25:50Z</time>
      </trkpt>
      <trkpt lat="42.90518" lon="0.1045">
        <ele>1498</ele>
        <time>2021-08-20T17:25:51Z</time>
      </trkpt>
      <trkpt lat="42.9052" lon="0.10455">
        <ele>1499</ele>
        <time>2021-08-20T17:25:52Z</time>
      </trkpt>
      <trkpt lat="42.90526" lon="0.10462">
        <ele>1501</ele>
        <time>2021-08-20T17:25:53Z</time>
      </trkpt>
      <trkpt lat="42.90536" lon="0.10463">
        <ele>1504</ele>
        <time>2021-08-20T17:25:55Z</time>
      </trkpt>
      <trkpt lat="42.90541" lon="0.1046">
        <ele>1506</ele>
        <time>2021-08-20T17:25:56Z</time>
      </trkpt>
      <trkpt lat="42.90554" lon="0.10446">
        <ele>1509</ele>
        <time>2021-08-20T17:25:59Z</time>
      </trkpt>
      <trkpt lat="42.90569" lon="0.10419">
        <ele>1512</ele>
        <time>2021-08-20T17:26:03Z</time>
      </trkpt>
      <trkpt lat="42.90593" lon="0.1037">
        <ele>1515</ele>
        <time>2021-08-20T17:26:11Z</time>
      </trkpt>
      <trkpt lat="42.906" lon="0.10351">
        <ele>1516</ele>
        <time>2021-08-20T17:26:14Z</time>
      </trkpt>
      <trkpt lat="42.90608" lon="0.10319">
        <ele>1517</ele>
        <time>2021-08-20T17:26:18Z</time>
      </trkpt>
      <trkpt lat="42.90626" lon="0.10277">
        <ele>1520</ele>
        <time>2021-08-20T17:26:24Z</time>
      </trkpt>
      <trkpt lat="42.90631" lon="0.10262">
        <ele>1521</ele>
        <time>2021-08-20T17:26:26Z</time>
      </trkpt>
      <trkpt lat="42.90635" lon="0.10238">
        <ele>1520</ele>
        <time>2021-08-20T17:26:30Z</time>
      </trkpt>
      <trkpt lat="42.90634" lon="0.1021">
        <ele>1518</ele>
        <time>2021-08-20T17:26:33Z</time>
      </trkpt>
      <trkpt lat="42.90635" lon="0.102">
        <ele>1518</ele>
        <time>2021-08-20T17:26:35Z</time>
      </trkpt>
      <trkpt lat="42.9064" lon="0.1019">
        <ele>1519</ele>
        <time>2021-08-20T17:26:36Z</time>
      </trkpt>
      <trkpt lat="42.90649" lon="0.10188">
        <ele>1522</ele>
        <time>2021-08-20T17:26:38Z</time>
      </trkpt>
      <trkpt lat="42.90652" lon="0.1019">
        <ele>1523</ele>
        <time>2021-08-20T17:26:38Z</time>
      </trkpt>
      <trkpt lat="42.90658" lon="0.10202">
        <ele>1526</ele>
        <time>2021-08-20T17:26:40Z</time>
      </trkpt>
      <trkpt lat="42.90659" lon="0.1021">
        <ele>1527</ele>
        <time>2021-08-20T17:26:41Z</time>
      </trkpt>
      <trkpt lat="42.90644" lon="0.10316">
        <ele>1532</ele>
        <time>2021-08-20T17:26:55Z</time>
      </trkpt>
      <trkpt lat="42.90629" lon="0.10452">
        <ele>1540</ele>
        <time>2021-08-20T17:27:13Z</time>
      </trkpt>
      <trkpt lat="42.90627" lon="0.10485">
        <ele>1541</ele>
        <time>2021-08-20T17:27:18Z</time>
      </trkpt>
      <trkpt lat="42.90627" lon="0.10546">
        <ele>1544</ele>
        <time>2021-08-20T17:27:26Z</time>
      </trkpt>
      <trkpt lat="42.90615" lon="0.10584">
        <ele>1540</ele>
        <time>2021-08-20T17:27:31Z</time>
      </trkpt>
      <trkpt lat="42.90614" lon="0.10605">
        <ele>1542</ele>
        <time>2021-08-20T17:27:34Z</time>
      </trkpt>
      <trkpt lat="42.90634" lon="0.10716">
        <ele>1561</ele>
        <time>2021-08-20T17:27:49Z</time>
      </trkpt>
      <trkpt lat="42.90633" lon="0.10752">
        <ele>1562</ele>
        <time>2021-08-20T17:27:53Z</time>
      </trkpt>
      <trkpt lat="42.90637" lon="0.10843">
        <ele>1567</ele>
        <time>2021-08-20T17:28:05Z</time>
      </trkpt>
      <trkpt lat="42.9065" lon="0.10941">
        <ele>1573</ele>
        <time>2021-08-20T17:28:18Z</time>
      </trkpt>
      <trkpt lat="42.90659" lon="0.10977">
        <ele>1576</ele>
        <time>2021-08-20T17:28:23Z</time>
      </trkpt>
      <trkpt lat="42.90686" lon="0.1107">
        <ele>1586</ele>
        <time>2021-08-20T17:28:36Z</time>
      </trkpt>
      <trkpt lat="42.90721" lon="0.11204">
        <ele>1595</ele>
        <time>2021-08-20T17:28:55Z</time>
      </trkpt>
      <trkpt lat="42.90724" lon="0.11266">
        <ele>1596</ele>
        <time>2021-08-20T17:29:03Z</time>
      </trkpt>
      <trkpt lat="42.90723" lon="0.11311">
        <ele>1600</ele>
        <time>2021-08-20T17:29:09Z</time>
      </trkpt>
      <trkpt lat="42.90724" lon="0.11346">
        <ele>1603</ele>
        <time>2021-08-20T17:29:13Z</time>
      </trkpt>
      <trkpt lat="42.90731" lon="0.11398">
        <ele>1606</ele>
        <time>2021-08-20T17:29:20Z</time>
      </trkpt>
      <trkpt lat="42.90735" lon="0.1147">
        <ele>1610</ele>
        <time>2021-08-20T17:29:30Z</time>
      </trkpt>
      <trkpt lat="42.90734" lon="0.11494">
        <ele>1611</ele>
        <time>2021-08-20T17:29:33Z</time>
      </trkpt>
      <trkpt lat="42.90729" lon="0.11538">
        <ele>1617</ele>
        <time>2021-08-20T17:29:38Z</time>
      </trkpt>
      <trkpt lat="42.90722" lon="0.1157">
        <ele>1621</ele>
        <time>2021-08-20T17:29:43Z</time>
      </trkpt>
      <trkpt lat="42.90713" lon="0.11599">
        <ele>1624</ele>
        <time>2021-08-20T17:29:47Z</time>
      </trkpt>
      <trkpt lat="42.90711" lon="0.1161">
        <ele>1625</ele>
        <time>2021-08-20T17:29:48Z</time>
      </trkpt>
      <trkpt lat="42.90712" lon="0.11618">
        <ele>1626</ele>
        <time>2021-08-20T17:29:49Z</time>
      </trkpt>
      <trkpt lat="42.90719" lon="0.11627">
        <ele>1627</ele>
        <time>2021-08-20T17:29:51Z</time>
      </trkpt>
      <trkpt lat="42.90728" lon="0.11626">
        <ele>1628</ele>
        <time>2021-08-20T17:29:53Z</time>
      </trkpt>
      <trkpt lat="42.90734" lon="0.11622">
        <ele>1628</ele>
        <time>2021-08-20T17:29:54Z</time>
      </trkpt>
      <trkpt lat="42.90761" lon="0.11588">
        <ele>1628</ele>
        <time>2021-08-20T17:30:01Z</time>
      </trkpt>
      <trkpt lat="42.90795" lon="0.11553">
        <ele>1629</ele>
        <time>2021-08-20T17:30:08Z</time>
      </trkpt>
      <trkpt lat="42.908" lon="0.11551">
        <ele>1630</ele>
        <time>2021-08-20T17:30:09Z</time>
      </trkpt>
      <trkpt lat="42.90805" lon="0.11552">
        <ele>1631</ele>
        <time>2021-08-20T17:30:10Z</time>
      </trkpt>
      <trkpt lat="42.90809" lon="0.11556">
        <ele>1632</ele>
        <time>2021-08-20T17:30:11Z</time>
      </trkpt>
      <trkpt lat="42.90812" lon="0.11562">
        <ele>1633</ele>
        <time>2021-08-20T17:30:12Z</time>
      </trkpt>
      <trkpt lat="42.90812" lon="0.11575">
        <ele>1634</ele>
        <time>2021-08-20T17:30:13Z</time>
      </trkpt>
      <trkpt lat="42.90779" lon="0.11639">
        <ele>1637</ele>
        <time>2021-08-20T17:30:24Z</time>
      </trkpt>
      <trkpt lat="42.90755" lon="0.117">
        <ele>1639</ele>
        <time>2021-08-20T17:30:33Z</time>
      </trkpt>
      <trkpt lat="42.90744" lon="0.11746">
        <ele>1641</ele>
        <time>2021-08-20T17:30:39Z</time>
      </trkpt>
      <trkpt lat="42.90737" lon="0.11789">
        <ele>1644</ele>
        <time>2021-08-20T17:30:45Z</time>
      </trkpt>
      <trkpt lat="42.90721" lon="0.11914">
        <ele>1653</ele>
        <time>2021-08-20T17:31:01Z</time>
      </trkpt>
      <trkpt lat="42.9071" lon="0.12023">
        <ele>1660</ele>
        <time>2021-08-20T17:31:16Z</time>
      </trkpt>
      <trkpt lat="42.90705" lon="0.12102">
        <ele>1669</ele>
        <time>2021-08-20T17:31:26Z</time>
      </trkpt>
      <trkpt lat="42.90705" lon="0.12253">
        <ele>1681</ele>
        <time>2021-08-20T17:31:46Z</time>
      </trkpt>
      <trkpt lat="42.90707" lon="0.1229">
        <ele>1684</ele>
        <time>2021-08-20T17:31:50Z</time>
      </trkpt>
      <trkpt lat="42.90702" lon="0.12414">
        <ele>1697</ele>
        <time>2021-08-20T17:32:07Z</time>
      </trkpt>
      <trkpt lat="42.90702" lon="0.12451">
        <ele>1699</ele>
        <time>2021-08-20T17:32:11Z</time>
      </trkpt>
      <trkpt lat="42.9071" lon="0.12592">
        <ele>1705</ele>
        <time>2021-08-20T17:32:30Z</time>
      </trkpt>
      <trkpt lat="42.90704" lon="0.1271">
        <ele>1712</ele>
        <time>2021-08-20T17:32:45Z</time>
      </trkpt>
      <trkpt lat="42.90698" lon="0.12764">
        <ele>1714</ele>
        <time>2021-08-20T17:32:52Z</time>
      </trkpt>
      <trkpt lat="42.90694" lon="0.12858">
        <ele>1720</ele>
        <time>2021-08-20T17:33:05Z</time>
      </trkpt>
      <trkpt lat="42.90692" lon="0.12958">
        <ele>1730</ele>
        <time>2021-08-20T17:33:18Z</time>
      </trkpt>
      <trkpt lat="42.90687" lon="0.12989">
        <ele>1732</ele>
        <time>2021-08-20T17:33:22Z</time>
      </trkpt>
      <trkpt lat="42.90675" lon="0.13025">
        <ele>1732</ele>
        <time>2021-08-20T17:33:27Z</time>
      </trkpt>
      <trkpt lat="42.90654" lon="0.13112">
        <ele>1737</ele>
        <time>2021-08-20T17:33:39Z</time>
      </trkpt>
      <trkpt lat="42.90649" lon="0.13127">
        <ele>1738</ele>
        <time>2021-08-20T17:33:41Z</time>
      </trkpt>
      <trkpt lat="42.9064" lon="0.13139">
        <ele>1739</ele>
        <time>2021-08-20T17:33:43Z</time>
      </trkpt>
      <trkpt lat="42.90632" lon="0.13147">
        <ele>1739</ele>
        <time>2021-08-20T17:33:45Z</time>
      </trkpt>
      <trkpt lat="42.90615" lon="0.13155">
        <ele>1738</ele>
        <time>2021-08-20T17:33:48Z</time>
      </trkpt>
      <trkpt lat="42.90591" lon="0.1316">
        <ele>1735</ele>
        <time>2021-08-20T17:33:53Z</time>
      </trkpt>
      <trkpt lat="42.90574" lon="0.13152">
        <ele>1735</ele>
        <time>2021-08-20T17:33:56Z</time>
      </trkpt>
      <trkpt lat="42.90567" lon="0.13142">
        <ele>1736</ele>
        <time>2021-08-20T17:33:58Z</time>
      </trkpt>
      <trkpt lat="42.90563" lon="0.13125">
        <ele>1737</ele>
        <time>2021-08-20T17:34:00Z</time>
      </trkpt>
      <trkpt lat="42.90556" lon="0.13088">
        <ele>1740</ele>
        <time>2021-08-20T17:34:05Z</time>
      </trkpt>
      <trkpt lat="42.90544" lon="0.1306">
        <ele>1744</ele>
        <time>2021-08-20T17:34:09Z</time>
      </trkpt>
      <trkpt lat="42.90534" lon="0.13041">
        <ele>1746</ele>
        <time>2021-08-20T17:34:12Z</time>
      </trkpt>
      <trkpt lat="42.90516" lon="0.13019">
        <ele>1750</ele>
        <time>2021-08-20T17:34:16Z</time>
      </trkpt>
      <trkpt lat="42.90475" lon="0.12992">
        <ele>1758</ele>
        <time>2021-08-20T17:34:25Z</time>
      </trkpt>
      <trkpt lat="42.90459" lon="0.12975">
        <ele>1762</ele>
        <time>2021-08-20T17:34:28Z</time>
      </trkpt>
      <trkpt lat="42.90453" lon="0.12965">
        <ele>1763</ele>
        <time>2021-08-20T17:34:30Z</time>
      </trkpt>
      <trkpt lat="42.90448" lon="0.1295">
        <ele>1765</ele>
        <time>2021-08-20T17:34:32Z</time>
      </trkpt>
      <trkpt lat="42.90431" lon="0.12869">
        <ele>1767</ele>
        <time>2021-08-20T17:34:43Z</time>
      </trkpt>
      <trkpt lat="42.90424" lon="0.12838">
        <ele>1767</ele>
        <time>2021-08-20T17:34:47Z</time>
      </trkpt>
      <trkpt lat="42.90421" lon="0.12819">
        <ele>1767</ele>
        <time>2021-08-20T17:34:50Z</time>
      </trkpt>
      <trkpt lat="42.90421" lon="0.1277">
        <ele>1766</ele>
        <time>2021-08-20T17:34:56Z</time>
      </trkpt>
      <trkpt lat="42.90419" lon="0.12756">
        <ele>1766</ele>
        <time>2021-08-20T17:34:58Z</time>
      </trkpt>
      <trkpt lat="42.90405" lon="0.12712">
        <ele>1772</ele>
        <time>2021-08-20T17:35:04Z</time>
      </trkpt>
      <trkpt lat="42.90404" lon="0.12702">
        <ele>1773</ele>
        <time>2021-08-20T17:35:06Z</time>
      </trkpt>
      <trkpt lat="42.90409" lon="0.12666">
        <ele>1772</ele>
        <time>2021-08-20T17:35:10Z</time>
      </trkpt>
      <trkpt lat="42.90408" lon="0.12654">
        <ele>1771</ele>
        <time>2021-08-20T17:35:12Z</time>
      </trkpt>
      <trkpt lat="42.90404" lon="0.12648">
        <ele>1772</ele>
        <time>2021-08-20T17:35:13Z</time>
      </trkpt>
      <trkpt lat="42.904" lon="0.12645">
        <ele>1774</ele>
        <time>2021-08-20T17:35:14Z</time>
      </trkpt>
      <trkpt lat="42.90391" lon="0.12643">
        <ele>1777</ele>
        <time>2021-08-20T17:35:15Z</time>
      </trkpt>
      <trkpt lat="42.90387" lon="0.12646">
        <ele>1779</ele>
        <time>2021-08-20T17:35:16Z</time>
      </trkpt>
      <trkpt lat="42.90378" lon="0.12665">
        <ele>1785</ele>
        <time>2021-08-20T17:35:19Z</time>
      </trkpt>
      <trkpt lat="42.90371" lon="0.1269">
        <ele>1787</ele>
        <time>2021-08-20T17:35:23Z</time>
      </trkpt>
      <trkpt lat="42.90371" lon="0.12703">
        <ele>1786</ele>
        <time>2021-08-20T17:35:24Z</time>
      </trkpt>
      <trkpt lat="42.90373" lon="0.12723">
        <ele>1785</ele>
        <time>2021-08-20T17:35:27Z</time>
      </trkpt>
      <trkpt lat="42.90372" lon="0.12736">
        <ele>1785</ele>
        <time>2021-08-20T17:35:29Z</time>
      </trkpt>
      <trkpt lat="42.90357" lon="0.1278">
        <ele>1791</ele>
        <time>2021-08-20T17:35:35Z</time>
      </trkpt>
      <trkpt lat="42.90355" lon="0.12795">
        <ele>1793</ele>
        <time>2021-08-20T17:35:37Z</time>
      </trkpt>
      <trkpt lat="42.90357" lon="0.1281">
        <ele>1793</ele>
        <time>2021-08-20T17:35:39Z</time>
      </trkpt>
      <trkpt lat="42.90377" lon="0.12877">
        <ele>1788</ele>
        <time>2021-08-20T17:35:48Z</time>
      </trkpt>
      <trkpt lat="42.90377" lon="0.12906">
        <ele>1790</ele>
        <time>2021-08-20T17:35:52Z</time>
      </trkpt>
      <trkpt lat="42.90375" lon="0.12932">
        <ele>1790</ele>
        <time>2021-08-20T17:35:56Z</time>
      </trkpt>
      <trkpt lat="42.90373" lon="0.12944">
        <ele>1791</ele>
        <time>2021-08-20T17:35:57Z</time>
      </trkpt>
      <trkpt lat="42.90351" lon="0.13009">
        <ele>1797</ele>
        <time>2021-08-20T17:36:07Z</time>
      </trkpt>
      <trkpt lat="42.90338" lon="0.13054">
        <ele>1802</ele>
        <time>2021-08-20T17:36:13Z</time>
      </trkpt>
      <trkpt lat="42.90335" lon="0.13069">
        <ele>1803</ele>
        <time>2021-08-20T17:36:15Z</time>
      </trkpt>
      <trkpt lat="42.90335" lon="0.13084">
        <ele>1802</ele>
        <time>2021-08-20T17:36:17Z</time>
      </trkpt>
      <trkpt lat="42.90338" lon="0.13112">
        <ele>1800</ele>
        <time>2021-08-20T17:36:21Z</time>
      </trkpt>
      <trkpt lat="42.90337" lon="0.13126">
        <ele>1800</ele>
        <time>2021-08-20T17:36:22Z</time>
      </trkpt>
      <trkpt lat="42.9033" lon="0.13144">
        <ele>1803</ele>
        <time>2021-08-20T17:36:25Z</time>
      </trkpt>
      <trkpt lat="42.90303" lon="0.13175">
        <ele>1812</ele>
        <time>2021-08-20T17:36:31Z</time>
      </trkpt>
      <trkpt lat="42.90281" lon="0.13212">
        <ele>1818</ele>
        <time>2021-08-20T17:36:38Z</time>
      </trkpt>
      <trkpt lat="42.90274" lon="0.13219">
        <ele>1820</ele>
        <time>2021-08-20T17:36:39Z</time>
      </trkpt>
      <trkpt lat="42.90267" lon="0.13224">
        <ele>1821</ele>
        <time>2021-08-20T17:36:40Z</time>
      </trkpt>
      <trkpt lat="42.90251" lon="0.13229">
        <ele>1825</ele>
        <time>2021-08-20T17:36:43Z</time>
      </trkpt>
      <trkpt lat="42.90202" lon="0.13238">
        <ele>1827</ele>
        <time>2021-08-20T17:36:52Z</time>
      </trkpt>
      <trkpt lat="42.90197" lon="0.1324">
        <ele>1827</ele>
        <time>2021-08-20T17:36:53Z</time>
      </trkpt>
      <trkpt lat="42.90192" lon="0.1325">
        <ele>1827</ele>
        <time>2021-08-20T17:36:55Z</time>
      </trkpt>
      <trkpt lat="42.90191" lon="0.1326">
        <ele>1828</ele>
        <time>2021-08-20T17:36:56Z</time>
      </trkpt>
      <trkpt lat="42.90193" lon="0.13271">
        <ele>1830</ele>
        <time>2021-08-20T17:36:57Z</time>
      </trkpt>
      <trkpt lat="42.90197" lon="0.13284">
        <ele>1831</ele>
        <time>2021-08-20T17:36:59Z</time>
      </trkpt>
      <trkpt lat="42.90212" lon="0.13316">
        <ele>1833</ele>
        <time>2021-08-20T17:37:04Z</time>
      </trkpt>
      <trkpt lat="42.9022" lon="0.13342">
        <ele>1836</ele>
        <time>2021-08-20T17:37:08Z</time>
      </trkpt>
      <trkpt lat="42.90223" lon="0.13382">
        <ele>1841</ele>
        <time>2021-08-20T17:37:13Z</time>
      </trkpt>
      <trkpt lat="42.90226" lon="0.13391">
        <ele>1842</ele>
        <time>2021-08-20T17:37:14Z</time>
      </trkpt>
      <trkpt lat="42.9023" lon="0.13397">
        <ele>1841</ele>
        <time>2021-08-20T17:37:16Z</time>
      </trkpt>
      <trkpt lat="42.90236" lon="0.13401">
        <ele>1841</ele>
        <time>2021-08-20T17:37:17Z</time>
      </trkpt>
      <trkpt lat="42.90253" lon="0.13409">
        <ele>1838</ele>
        <time>2021-08-20T17:37:20Z</time>
      </trkpt>
      <trkpt lat="42.9026" lon="0.13414">
        <ele>1837</ele>
        <time>2021-08-20T17:37:21Z</time>
      </trkpt>
      <trkpt lat="42.90265" lon="0.13422">
        <ele>1838</ele>
        <time>2021-08-20T17:37:23Z</time>
      </trkpt>
      <trkpt lat="42.90277" lon="0.13454">
        <ele>1844</ele>
        <time>2021-08-20T17:37:27Z</time>
      </trkpt>
      <trkpt lat="42.90278" lon="0.13466">
        <ele>1846</ele>
        <time>2021-08-20T17:37:29Z</time>
      </trkpt>
      <trkpt lat="42.90278" lon="0.13476">
        <ele>1849</ele>
        <time>2021-08-20T17:37:30Z</time>
      </trkpt>
      <trkpt lat="42.90271" lon="0.13506">
        <ele>1857</ele>
        <time>2021-08-20T17:37:34Z</time>
      </trkpt>
      <trkpt lat="42.9027" lon="0.13515">
        <ele>1858</ele>
        <time>2021-08-20T17:37:36Z</time>
      </trkpt>
      <trkpt lat="42.90273" lon="0.1353">
        <ele>1858</ele>
        <time>2021-08-20T17:37:38Z</time>
      </trkpt>
      <trkpt lat="42.90283" lon="0.13566">
        <ele>1859</ele>
        <time>2021-08-20T17:37:43Z</time>
      </trkpt>
      <trkpt lat="42.90285" lon="0.13595">
        <ele>1861</ele>
        <time>2021-08-20T17:37:46Z</time>
      </trkpt>
      <trkpt lat="42.90287" lon="0.13602">
        <ele>1862</ele>
        <time>2021-08-20T17:37:47Z</time>
      </trkpt>
      <trkpt lat="42.90294" lon="0.13609">
        <ele>1861</ele>
        <time>2021-08-20T17:37:49Z</time>
      </trkpt>
      <trkpt lat="42.90314" lon="0.13611">
        <ele>1858</ele>
        <time>2021-08-20T17:37:52Z</time>
      </trkpt>
      <trkpt lat="42.90322" lon="0.13615">
        <ele>1857</ele>
        <time>2021-08-20T17:37:54Z</time>
      </trkpt>
      <trkpt lat="42.90342" lon="0.1363">
        <ele>1855</ele>
        <time>2021-08-20T17:37:58Z</time>
      </trkpt>
      <trkpt lat="42.9035" lon="0.13638">
        <ele>1854</ele>
        <time>2021-08-20T17:38:00Z</time>
      </trkpt>
      <trkpt lat="42.90356" lon="0.1365">
        <ele>1854</ele>
        <time>2021-08-20T17:38:02Z</time>
      </trkpt>
      <trkpt lat="42.90366" lon="0.1368">
        <ele>1857</ele>
        <time>2021-08-20T17:38:06Z</time>
      </trkpt>
      <trkpt lat="42.9037" lon="0.13686">
        <ele>1857</ele>
        <time>2021-08-20T17:38:07Z</time>
      </trkpt>
      <trkpt lat="42.90382" lon="0.13695">
        <ele>1857</ele>
        <time>2021-08-20T17:38:10Z</time>
      </trkpt>
      <trkpt lat="42.90407" lon="0.13707">
        <ele>1857</ele>
        <time>2021-08-20T17:38:14Z</time>
      </trkpt>
      <trkpt lat="42.90438" lon="0.13714">
        <ele>1858</ele>
        <time>2021-08-20T17:38:20Z</time>
      </trkpt>
      <trkpt lat="42.90448" lon="0.13714">
        <ele>1858</ele>
        <time>2021-08-20T17:38:22Z</time>
      </trkpt>
      <trkpt lat="42.90469" lon="0.13709">
        <ele>1857</ele>
        <time>2021-08-20T17:38:25Z</time>
      </trkpt>
      <trkpt lat="42.90485" lon="0.13711">
        <ele>1858</ele>
        <time>2021-08-20T17:38:28Z</time>
      </trkpt>
      <trkpt lat="42.90497" lon="0.13722">
        <ele>1862</ele>
        <time>2021-08-20T17:38:31Z</time>
      </trkpt>
      <trkpt lat="42.90513" lon="0.13741">
        <ele>1866</ele>
        <time>2021-08-20T17:38:35Z</time>
      </trkpt>
      <trkpt lat="42.90526" lon="0.13761">
        <ele>1870</ele>
        <time>2021-08-20T17:38:38Z</time>
      </trkpt>
      <trkpt lat="42.90531" lon="0.13776">
        <ele>1873</ele>
        <time>2021-08-20T17:38:40Z</time>
      </trkpt>
      <trkpt lat="42.9054" lon="0.13793">
        <ele>1877</ele>
        <time>2021-08-20T17:38:43Z</time>
      </trkpt>
      <trkpt lat="42.90576" lon="0.13827">
        <ele>1886</ele>
        <time>2021-08-20T17:38:51Z</time>
      </trkpt>
      <trkpt lat="42.90609" lon="0.13843">
        <ele>1890</ele>
        <time>2021-08-20T17:38:57Z</time>
      </trkpt>
      <trkpt lat="42.90619" lon="0.13857">
        <ele>1894</ele>
        <time>2021-08-20T17:39:00Z</time>
      </trkpt>
      <trkpt lat="42.90629" lon="0.13864">
        <ele>1896</ele>
        <time>2021-08-20T17:39:02Z</time>
      </trkpt>
      <trkpt lat="42.90641" lon="0.13869">
        <ele>1897</ele>
        <time>2021-08-20T17:39:04Z</time>
      </trkpt>
      <trkpt lat="42.90655" lon="0.1387">
        <ele>1898</ele>
        <time>2021-08-20T17:39:06Z</time>
      </trkpt>
      <trkpt lat="42.90694" lon="0.13858">
        <ele>1899</ele>
        <time>2021-08-20T17:39:13Z</time>
      </trkpt>
      <trkpt lat="42.90706" lon="0.13856">
        <ele>1901</ele>
        <time>2021-08-20T17:39:16Z</time>
      </trkpt>
      <trkpt lat="42.90728" lon="0.1386">
        <ele>1906</ele>
        <time>2021-08-20T17:39:19Z</time>
      </trkpt>
      <trkpt lat="42.90738" lon="0.13859">
        <ele>1908</ele>
        <time>2021-08-20T17:39:21Z</time>
      </trkpt>
      <trkpt lat="42.90755" lon="0.13846">
        <ele>1907</ele>
        <time>2021-08-20T17:39:25Z</time>
      </trkpt>
      <trkpt lat="42.90781" lon="0.13813">
        <ele>1903</ele>
        <time>2021-08-20T17:39:31Z</time>
      </trkpt>
      <trkpt lat="42.9079" lon="0.13805">
        <ele>1903</ele>
        <time>2021-08-20T17:39:33Z</time>
      </trkpt>
      <trkpt lat="42.90824" lon="0.13785">
        <ele>1905</ele>
        <time>2021-08-20T17:39:40Z</time>
      </trkpt>
      <trkpt lat="42.90834" lon="0.1378">
        <ele>1905</ele>
        <time>2021-08-20T17:39:41Z</time>
      </trkpt>
      <trkpt lat="42.90843" lon="0.13779">
        <ele>1906</ele>
        <time>2021-08-20T17:39:43Z</time>
      </trkpt>
      <trkpt lat="42.90892" lon="0.13781">
        <ele>1914</ele>
        <time>2021-08-20T17:39:52Z</time>
      </trkpt>
      <trkpt lat="42.90932" lon="0.13796">
        <ele>1925</ele>
        <time>2021-08-20T17:39:59Z</time>
      </trkpt>
      <trkpt lat="42.90954" lon="0.138">
        <ele>1926</ele>
        <time>2021-08-20T17:40:03Z</time>
      </trkpt>
      <trkpt lat="42.90982" lon="0.13801">
        <ele>1926</ele>
        <time>2021-08-20T17:40:08Z</time>
      </trkpt>
      <trkpt lat="42.91015" lon="0.13805">
        <ele>1927</ele>
        <time>2021-08-20T17:40:14Z</time>
      </trkpt>
      <trkpt lat="42.91044" lon="0.13803">
        <ele>1925</ele>
        <time>2021-08-20T17:40:19Z</time>
      </trkpt>
      <trkpt lat="42.91057" lon="0.13805">
        <ele>1925</ele>
        <time>2021-08-20T17:40:21Z</time>
      </trkpt>
      <trkpt lat="42.91063" lon="0.13808">
        <ele>1926</ele>
        <time>2021-08-20T17:40:23Z</time>
      </trkpt>
      <trkpt lat="42.9109" lon="0.13853">
        <ele>1946</ele>
        <time>2021-08-20T17:40:30Z</time>
      </trkpt>
      <trkpt lat="42.91098" lon="0.13857">
        <ele>1948</ele>
        <time>2021-08-20T17:40:32Z</time>
      </trkpt>
      <trkpt lat="42.91106" lon="0.13852">
        <ele>1946</ele>
        <time>2021-08-20T17:40:33Z</time>
      </trkpt>
      <trkpt lat="42.91124" lon="0.13826">
        <ele>1935</ele>
        <time>2021-08-20T17:40:38Z</time>
      </trkpt>
      <trkpt lat="42.91148" lon="0.13797">
        <ele>1921</ele>
        <time>2021-08-20T17:40:44Z</time>
      </trkpt>
      <trkpt lat="42.91158" lon="0.13789">
        <ele>1918</ele>
        <time>2021-08-20T17:40:46Z</time>
      </trkpt>
      <trkpt lat="42.91179" lon="0.13783">
        <ele>1919</ele>
        <time>2021-08-20T17:40:49Z</time>
      </trkpt>
      <trkpt lat="42.91206" lon="0.13786">
        <ele>1929</ele>
        <time>2021-08-20T17:40:54Z</time>
      </trkpt>
      <trkpt lat="42.91216" lon="0.13785">
        <ele>1932</ele>
        <time>2021-08-20T17:40:56Z</time>
      </trkpt>
      <trkpt lat="42.9123" lon="0.1378">
        <ele>1935</ele>
        <time>2021-08-20T17:40:59Z</time>
      </trkpt>
      <trkpt lat="42.91252" lon="0.13766">
        <ele>1936</ele>
        <time>2021-08-20T17:41:03Z</time>
      </trkpt>
      <trkpt lat="42.9126" lon="0.13758">
        <ele>1936</ele>
        <time>2021-08-20T17:41:05Z</time>
      </trkpt>
      <trkpt lat="42.91272" lon="0.13739">
        <ele>1932</ele>
        <time>2021-08-20T17:41:08Z</time>
      </trkpt>
      <trkpt lat="42.91284" lon="0.13708">
        <ele>1925</ele>
        <time>2021-08-20T17:41:13Z</time>
      </trkpt>
      <trkpt lat="42.91291" lon="0.13695">
        <ele>1923</ele>
        <time>2021-08-20T17:41:15Z</time>
      </trkpt>
      <trkpt lat="42.91304" lon="0.13681">
        <ele>1923</ele>
        <time>2021-08-20T17:41:18Z</time>
      </trkpt>
      <trkpt lat="42.91321" lon="0.13675">
        <ele>1927</ele>
        <time>2021-08-20T17:41:21Z</time>
      </trkpt>
      <trkpt lat="42.91329" lon="0.13677">
        <ele>1931</ele>
        <time>2021-08-20T17:41:22Z</time>
      </trkpt>
      <trkpt lat="42.91335" lon="0.13683">
        <ele>1935</ele>
        <time>2021-08-20T17:41:24Z</time>
      </trkpt>
      <trkpt lat="42.91338" lon="0.13692">
        <ele>1939</ele>
        <time>2021-08-20T17:41:25Z</time>
      </trkpt>
      <trkpt lat="42.9134" lon="0.13701">
        <ele>1942</ele>
        <time>2021-08-20T17:41:26Z</time>
      </trkpt>
      <trkpt lat="42.91338" lon="0.13709">
        <ele>1944</ele>
        <time>2021-08-20T17:41:27Z</time>
      </trkpt>
      <trkpt lat="42.91334" lon="0.13716">
        <ele>1946</ele>
        <time>2021-08-20T17:41:28Z</time>
      </trkpt>
      <trkpt lat="42.91328" lon="0.13721">
        <ele>1945</ele>
        <time>2021-08-20T17:41:30Z</time>
      </trkpt>
      <trkpt lat="42.91308" lon="0.13732">
        <ele>1942</ele>
        <time>2021-08-20T17:41:33Z</time>
      </trkpt>
      <trkpt lat="42.91291" lon="0.13746">
        <ele>1941</ele>
        <time>2021-08-20T17:41:37Z</time>
      </trkpt>
      <trkpt lat="42.91272" lon="0.13783">
        <ele>1951</ele>
        <time>2021-08-20T17:41:43Z</time>
      </trkpt>
      <trkpt lat="42.91258" lon="0.13805">
        <ele>1955</ele>
        <time>2021-08-20T17:41:47Z</time>
      </trkpt>
      <trkpt lat="42.91249" lon="0.13815">
        <ele>1955</ele>
        <time>2021-08-20T17:41:49Z</time>
      </trkpt>
      <trkpt lat="42.91229" lon="0.13828">
        <ele>1955</ele>
        <time>2021-08-20T17:41:53Z</time>
      </trkpt>
      <trkpt lat="42.91211" lon="0.13836">
        <ele>1954</ele>
        <time>2021-08-20T17:41:56Z</time>
      </trkpt>
      <trkpt lat="42.91195" lon="0.13838">
        <ele>1950</ele>
        <time>2021-08-20T17:41:59Z</time>
      </trkpt>
      <trkpt lat="42.91176" lon="0.13846">
        <ele>1950</ele>
        <time>2021-08-20T17:42:02Z</time>
      </trkpt>
      <trkpt lat="42.91167" lon="0.13857">
        <ele>1954</ele>
        <time>2021-08-20T17:42:05Z</time>
      </trkpt>
      <trkpt lat="42.91146" lon="0.13897">
        <ele>1974</ele>
        <time>2021-08-20T17:42:11Z</time>
      </trkpt>
      <trkpt lat="42.91139" lon="0.13912">
        <ele>1981</ele>
        <time>2021-08-20T17:42:13Z</time>
      </trkpt>
      <trkpt lat="42.91132" lon="0.13934">
        <ele>1993</ele>
        <time>2021-08-20T17:42:16Z</time>
      </trkpt>
      <trkpt lat="42.91126" lon="0.13946">
        <ele>1998</ele>
        <time>2021-08-20T17:42:18Z</time>
      </trkpt>
      <trkpt lat="42.9112" lon="0.13949">
        <ele>1999</ele>
        <time>2021-08-20T17:42:19Z</time>
      </trkpt>
      <trkpt lat="42.91103" lon="0.1395">
        <ele>1996</ele>
        <time>2021-08-20T17:42:22Z</time>
      </trkpt>
      <trkpt lat="42.91087" lon="0.13948">
        <ele>1992</ele>
        <time>2021-08-20T17:42:25Z</time>
      </trkpt>
      <trkpt lat="42.91052" lon="0.13938">
        <ele>1989</ele>
        <time>2021-08-20T17:42:32Z</time>
      </trkpt>
      <trkpt lat="42.91026" lon="0.13933">
        <ele>1990</ele>
        <time>2021-08-20T17:42:36Z</time>
      </trkpt>
      <trkpt lat="42.90977" lon="0.13936">
        <ele>1997</ele>
        <time>2021-08-20T17:42:45Z</time>
      </trkpt>
      <trkpt lat="42.9095" lon="0.13932">
        <ele>1997</ele>
        <time>2021-08-20T17:42:50Z</time>
      </trkpt>
      <trkpt lat="42.90917" lon="0.13937">
        <ele>2001</ele>
        <time>2021-08-20T17:42:56Z</time>
      </trkpt>
      <trkpt lat="42.90906" lon="0.13941">
        <ele>2000</ele>
        <time>2021-08-20T17:42:58Z</time>
      </trkpt>
      <trkpt lat="42.90875" lon="0.13966">
        <ele>2000</ele>
        <time>2021-08-20T17:43:04Z</time>
      </trkpt>
      <trkpt lat="42.90845" lon="0.14007">
        <ele>2005</ele>
        <time>2021-08-20T17:43:12Z</time>
      </trkpt>
      <trkpt lat="42.90829" lon="0.14017">
        <ele>2003</ele>
        <time>2021-08-20T17:43:15Z</time>
      </trkpt>
      <trkpt lat="42.90809" lon="0.14035">
        <ele>2004</ele>
        <time>2021-08-20T17:43:19Z</time>
      </trkpt>
      <trkpt lat="42.90795" lon="0.14059">
        <ele>2010</ele>
        <time>2021-08-20T17:43:23Z</time>
      </trkpt>
      <trkpt lat="42.90774" lon="0.14082">
        <ele>2012</ele>
        <time>2021-08-20T17:43:28Z</time>
      </trkpt>
      <trkpt lat="42.90748" lon="0.14122">
        <ele>2014</ele>
        <time>2021-08-20T17:43:35Z</time>
      </trkpt>
      <trkpt lat="42.90737" lon="0.14147">
        <ele>2017</ele>
        <time>2021-08-20T17:43:39Z</time>
      </trkpt>
      <trkpt lat="42.90723" lon="0.14199">
        <ele>2021</ele>
        <time>2021-08-20T17:43:46Z</time>
      </trkpt>
      <trkpt lat="42.90718" lon="0.14235">
        <ele>2023</ele>
        <time>2021-08-20T17:43:51Z</time>
      </trkpt>
      <trkpt lat="42.90718" lon="0.14246">
        <ele>2024</ele>
        <time>2021-08-20T17:43:52Z</time>
      </trkpt>
      <trkpt lat="42.90719" lon="0.14255">
        <ele>2026</ele>
        <time>2021-08-20T17:43:53Z</time>
      </trkpt>
      <trkpt lat="42.90722" lon="0.14267">
        <ele>2029</ele>
        <time>2021-08-20T17:43:55Z</time>
      </trkpt>
      <trkpt lat="42.90738" lon="0.14301">
        <ele>2040</ele>
        <time>2021-08-20T17:44:00Z</time>
      </trkpt>
      <trkpt lat="42.90743" lon="0.14317">
        <ele>2044</ele>
        <time>2021-08-20T17:44:03Z</time>
      </trkpt>
      <trkpt lat="42.90746" lon="0.14333">
        <ele>2046</ele>
        <time>2021-08-20T17:44:05Z</time>
      </trkpt>
      <trkpt lat="42.90747" lon="0.1435">
        <ele>2050</ele>
        <time>2021-08-20T17:44:07Z</time>
      </trkpt>
      <trkpt lat="42.90748" lon="0.14362">
        <ele>2053</ele>
        <time>2021-08-20T17:44:08Z</time>
      </trkpt>
      <trkpt lat="42.90745" lon="0.14379">
        <ele>2056</ele>
        <time>2021-08-20T17:44:11Z</time>
      </trkpt>
      <trkpt lat="42.90738" lon="0.1439">
        <ele>2056</ele>
        <time>2021-08-20T17:44:13Z</time>
      </trkpt>
      <trkpt lat="42.90715" lon="0.14407">
        <ele>2053</ele>
        <time>2021-08-20T17:44:17Z</time>
      </trkpt>
      <trkpt lat="42.90699" lon="0.14422">
        <ele>2054</ele>
        <time>2021-08-20T17:44:21Z</time>
      </trkpt>
      <trkpt lat="42.90635" lon="0.14459">
        <ele>2051</ele>
        <time>2021-08-20T17:44:33Z</time>
      </trkpt>
      <trkpt lat="42.90626" lon="0.1447">
        <ele>2052</ele>
        <time>2021-08-20T17:44:35Z</time>
      </trkpt>
      <trkpt lat="42.90602" lon="0.1453">
        <ele>2063</ele>
        <time>2021-08-20T17:44:44Z</time>
      </trkpt>
      <trkpt lat="42.90595" lon="0.14563">
        <ele>2070</ele>
        <time>2021-08-20T17:44:49Z</time>
      </trkpt>
      <trkpt lat="42.90587" lon="0.14586">
        <ele>2073</ele>
        <time>2021-08-20T17:44:52Z</time>
      </trkpt>
      <trkpt lat="42.90558" lon="0.14634">
        <ele>2082</ele>
        <time>2021-08-20T17:45:00Z</time>
      </trkpt>
      <trkpt lat="42.9055" lon="0.14639">
        <ele>2081</ele>
        <time>2021-08-20T17:45:02Z</time>
      </trkpt>
      <trkpt lat="42.90523" lon="0.14649">
        <ele>2078</ele>
        <time>2021-08-20T17:45:07Z</time>
      </trkpt>
      <trkpt lat="42.90517" lon="0.14654">
        <ele>2079</ele>
        <time>2021-08-20T17:45:08Z</time>
      </trkpt>
      <trkpt lat="42.90516" lon="0.1466">
        <ele>2081</ele>
        <time>2021-08-20T17:45:09Z</time>
      </trkpt>
      <trkpt lat="42.90517" lon="0.14665">
        <ele>2083</ele>
        <time>2021-08-20T17:45:09Z</time>
      </trkpt>
      <trkpt lat="42.9052" lon="0.1467">
        <ele>2086</ele>
        <time>2021-08-20T17:45:10Z</time>
      </trkpt>
      <trkpt lat="42.90529" lon="0.1467">
        <ele>2087</ele>
        <time>2021-08-20T17:45:12Z</time>
      </trkpt>
      <trkpt lat="42.90573" lon="0.14647">
        <ele>2090</ele>
        <time>2021-08-20T17:45:20Z</time>
      </trkpt>
      <trkpt lat="42.90611" lon="0.146">
        <ele>2087</ele>
        <time>2021-08-20T17:45:29Z</time>
      </trkpt>
      <trkpt lat="42.9063" lon="0.14583">
        <ele>2092</ele>
        <time>2021-08-20T17:45:33Z</time>
      </trkpt>
      <trkpt lat="42.90656" lon="0.14566">
        <ele>2097</ele>
        <time>2021-08-20T17:45:39Z</time>
      </trkpt>
      <trkpt lat="42.90663" lon="0.14559">
        <ele>2098</ele>
        <time>2021-08-20T17:45:40Z</time>
      </trkpt>
      <trkpt lat="42.90681" lon="0.14529">
        <ele>2093</ele>
        <time>2021-08-20T17:45:45Z</time>
      </trkpt>
      <trkpt lat="42.90687" lon="0.14523">
        <ele>2092</ele>
        <time>2021-08-20T17:45:46Z</time>
      </trkpt>
      <trkpt lat="42.90695" lon="0.14519">
        <ele>2093</ele>
        <time>2021-08-20T17:45:48Z</time>
      </trkpt>
      <trkpt lat="42.90733" lon="0.14511">
        <ele>2100</ele>
        <time>2021-08-20T17:45:55Z</time>
      </trkpt>
      <trkpt lat="42.90754" lon="0.14513">
        <ele>2106</ele>
        <time>2021-08-20T17:45:59Z</time>
      </trkpt>
      <trkpt lat="42.90774" lon="0.1452">
        <ele>2110</ele>
        <time>2021-08-20T17:46:02Z</time>
      </trkpt>
      <trkpt lat="42.90792" lon="0.14517">
        <ele>2112</ele>
        <time>2021-08-20T17:46:05Z</time>
      </trkpt>
      <trkpt lat="42.90803" lon="0.1451">
        <ele>2112</ele>
        <time>2021-08-20T17:46:08Z</time>
      </trkpt>
      <trkpt lat="42.90811" lon="0.14508">
        <ele>2113</ele>
        <time>2021-08-20T17:46:09Z</time>
      </trkpt>
      <trkpt lat="42.9082" lon="0.14509">
        <ele>2115</ele>
        <time>2021-08-20T17:46:11Z</time>
      </trkpt>
      <trkpt lat="42.90824" lon="0.14512">
        <ele>2116</ele>
        <time>2021-08-20T17:46:11Z</time>
      </trkpt>
      <trkpt lat="42.90838" lon="0.14528">
        <ele>2118</ele>
        <time>2021-08-20T17:46:15Z</time>
      </trkpt>
      <trkpt lat="42.90856" lon="0.14567">
        <ele>2120</ele>
        <time>2021-08-20T17:46:21Z</time>
      </trkpt>
      <trkpt lat="42.9086" lon="0.14579">
        <ele>2120</ele>
        <time>2021-08-20T17:46:22Z</time>
      </trkpt>
      <trkpt lat="42.9086" lon="0.1459">
        <ele>2118</ele>
        <time>2021-08-20T17:46:24Z</time>
      </trkpt>
      <trkpt lat="42.90858" lon="0.14603">
        <ele>2115</ele>
        <time>2021-08-20T17:46:26Z</time>
      </trkpt>
      <trkpt lat="42.90849" lon="0.14618">
        <ele>2111</ele>
        <time>2021-08-20T17:46:28Z</time>
      </trkpt>
    </trkseg>
  </trk>
</gpx>